Aldea San Jose, Argentina
Current Conditions -  °F | °C
As of 9:00 AM on Thursday 29 Jan 2015 (Local Time) from SAAR Reporting Station
Clear Clear  
Wind Chill: 64°   Ceiling: Unl
Heat Index: 64°   Visibility: 6mi
Dew Point: 57°   Wind: 7mph
Humidity: 77%   Direction: 140°SE
Pressure: 30.09"   Gusts: NA
Location:  32.03°S, 60.32°W
Report Text: SAAR 291200Z 14006KT CAVOK 18/14 Q1019
Loading
Personal Weather Stations






























Interactive Weather Map New forecast layout! Learn more

10-Day Weather Forecast

Advertisements
Track Severe Weather on mobile